createdAt,value
2023-01-01T00:00:45.149Z,9.57
2023-01-01T00:01:45.170Z,9.63
2023-01-01T00:02:45.051Z,9.65
2023-01-01T00:03:45.058Z,9.62
2023-01-01T00:04:45.019Z,9.61
2023-01-01T00:05:45.063Z,9.59
2023-01-01T00:06:44.979Z,9.63
2023-01-01T00:07:45.028Z,9.67
2023-01-01T03:30:02.505Z,9.75
2023-01-01T03:31:02.616Z,10.00
2023-01-01T03:32:02.784Z,10.09
2023-01-01T03:33:02.643Z,10.14
2023-01-01T03:34:02.683Z,10.12
2023-01-01T03:35:02.759Z,10.17
2023-01-01T03:36:02.668Z,10.23
2023-01-01T03:37:02.587Z,10.29
2023-01-01T03:38:02.700Z,10.28
2023-01-01T03:39:02.601Z,10.29
2023-01-01T03:40:02.503Z,10.34
2023-01-01T03:41:02.475Z,10.36
2023-01-01T03:42:02.571Z,10.30
2023-01-01T03:43:02.446Z,10.28
2023-01-01T03:44:02.470Z,10.32
2023-01-01T03:45:02.455Z,10.30
2023-01-01T03:46:02.442Z,10.32
2023-01-01T03:47:02.495Z,10.32
2023-01-01T03:48:02.427Z,10.27
2023-01-01T03:49:04.329Z,10.25
2023-01-01T03:50:02.483Z,10.32
2023-01-01T03:51:02.371Z,10.40
2023-01-01T03:52:02.372Z,10.27
2023-01-01T03:53:02.424Z,10.32
2023-01-01T03:54:02.375Z,10.29
2023-01-01T03:55:02.415Z,10.34
2023-01-01T03:56:02.398Z,10.40
2023-01-01T03:57:02.358Z,10.46
2023-01-01T03:58:02.430Z,10.39
2023-01-01T03:59:02.332Z,10.39
2023-01-01T04:00:02.342Z,10.44
2023-01-01T04:01:02.371Z,10.46
2023-01-01T04:02:02.542Z,10.50
2023-01-01T04:03:02.352Z,10.52
2023-01-01T04:04:02.318Z,10.46
2023-01-01T04:05:02.302Z,10.37
2023-01-01T04:06:02.297Z,10.34
2023-01-01T04:07:14.856Z,10.37
2023-01-01T04:08:02.270Z,10.41
2023-01-01T04:09:02.284Z,10.32
2023-01-01T04:10:02.291Z,10.24
2023-01-01T04:11:02.211Z,10.19
2023-01-01T04:12:02.249Z,10.16
2023-01-01T04:13:02.194Z,10.20
2023-01-01T04:14:02.182Z,10.24
2023-01-01T04:15:02.212Z,10.28
2023-01-01T04:16:02.195Z,10.17
2023-01-01T04:17:02.172Z,10.23
2023-01-01T04:18:02.192Z,10.23
2023-01-01T04:19:02.152Z,10.29
2023-01-01T04:20:02.115Z,10.30
2023-01-01T04:21:02.169Z,10.27
2023-01-01T04:22:02.123Z,10.29
2023-01-01T04:23:02.105Z,10.30
2023-01-01T04:24:02.064Z,10.34
2023-01-01T04:25:02.106Z,10.39
2023-01-01T04:26:02.049Z,10.41
2023-01-01T04:27:02.049Z,10.43
2023-01-01T04:28:02.045Z,10.42
2023-01-01T04:29:02.006Z,10.36
2023-01-01T04:30:01.996Z,10.35
2023-01-01T04:31:01.971Z,10.38
2023-01-01T04:32:01.968Z,10.43
2023-01-01T04:33:01.996Z,10.42
2023-01-01T04:34:02.151Z,10.39
2023-01-01T04:35:01.976Z,10.41
2023-01-01T04:36:01.961Z,10.42
2023-01-01T04:37:01.874Z,10.45
2023-01-01T04:38:01.956Z,10.45
2023-01-01T04:39:01.905Z,10.40
2023-01-01T04:40:01.871Z,10.39
2023-01-01T04:41:01.882Z,10.35
2023-01-01T04:42:01.954Z,10.36
2023-01-01T04:43:01.843Z,10.40
2023-01-01T04:44:01.738Z,10.45
2023-01-01T04:45:01.715Z,10.49
2023-01-01T04:46:01.842Z,10.47
2023-01-01T04:47:01.684Z,10.48
2023-01-01T04:48:01.729Z,10.49
2023-01-01T04:49:01.764Z,10.51
2023-01-01T04:50:01.677Z,10.49
2023-01-01T04:51:01.626Z,10.47
2023-01-01T04:52:01.648Z,10.50
2023-01-01T04:53:01.577Z,10.48
2023-01-01T04:54:01.691Z,10.47
2023-01-01T04:55:01.601Z,10.44
2023-01-01T04:56:01.554Z,10.41
2023-01-01T04:57:01.592Z,10.46
2023-01-01T04:58:01.517Z,10.42
2023-01-01T04:59:01.514Z,10.43
2023-01-01T05:00:01.473Z,10.52
2023-01-01T05:01:01.646Z,10.59
2023-01-01T05:02:01.703Z,10.65
2023-01-01T05:03:01.434Z,10.71
2023-01-01T05:04:01.407Z,10.66
2023-01-01T05:05:01.534Z,10.59
2023-01-01T05:06:01.406Z,10.54
2023-01-01T05:07:01.375Z,10.59
2023-01-01T05:08:01.361Z,10.67
2023-01-01T05:09:01.400Z,10.62
2023-01-01T05:10:01.366Z,10.66
2023-01-01T05:11:01.340Z,10.66
2023-01-01T05:12:01.385Z,10.65
2023-01-01T05:13:01.326Z,10.70
2023-01-01T05:14:01.357Z,10.70
2023-01-01T05:15:01.352Z,10.56
2023-01-01T05:16:01.355Z,10.60
2023-01-01T05:17:01.352Z,10.57
2023-01-01T05:18:01.285Z,10.59
2023-01-01T05:19:01.259Z,10.53
2023-01-01T05:20:01.251Z,10.45
2023-01-01T05:21:02.033Z,10.44
2023-01-01T05:22:06.914Z,10.36
2023-01-01T05:23:01.224Z,10.41
2023-01-01T05:24:01.214Z,10.43
2023-01-01T05:25:01.192Z,10.40
2023-01-01T05:26:01.243Z,10.34
2023-01-01T05:27:01.268Z,10.32
2023-01-01T05:28:01.202Z,10.32
2023-01-01T05:29:01.173Z,10.16
2023-01-01T05:30:01.158Z,10.18
2023-01-01T05:31:01.160Z,10.22
2023-01-01T05:32:01.323Z,10.13
2023-01-01T05:33:01.108Z,10.09
2023-01-01T05:35:01.174Z,10.06
2023-01-01T05:36:01.086Z,9.91
2023-01-01T05:37:01.099Z,9.91
2023-01-01T05:38:01.090Z,9.96
2023-01-01T05:39:01.052Z,10.00
2023-01-01T05:40:01.080Z,10.04
2023-01-01T05:41:01.094Z,10.06
2023-01-01T05:42:01.053Z,10.09
2023-01-01T05:43:01.041Z,10.03
2023-01-01T05:44:01.045Z,9.99
2023-01-01T05:45:01.025Z,10.02
2023-01-01T05:46:01.131Z,9.98
2023-01-01T05:47:01.097Z,10.01
2023-01-01T05:48:01.020Z,9.95
2023-01-01T05:49:01.028Z,9.92
2023-01-01T05:50:01.017Z,9.91
2023-01-01T05:51:01.017Z,9.95
2023-01-01T05:52:01.034Z,9.94
2023-01-01T05:53:00.995Z,9.78
2023-01-01T05:54:01.062Z,9.80
2023-01-01T05:55:01.188Z,9.87
2023-01-01T05:56:00.990Z,9.87
2023-01-01T05:57:00.985Z,9.87
2023-01-01T05:58:01.126Z,9.85
2023-01-01T05:59:01.026Z,9.86
2023-01-01T06:00:01.054Z,9.84
2023-01-01T06:01:01.107Z,9.84
2023-01-01T06:02:01.159Z,9.82
2023-01-01T06:03:00.971Z,9.81
2023-01-01T06:04:01.125Z,9.77
2023-01-01T06:05:00.975Z,9.82
2023-01-01T06:06:00.999Z,9.76
2023-01-01T06:07:00.976Z,9.75
2023-01-01T06:08:00.975Z,9.73
2023-01-01T06:09:00.964Z,9.72
2023-01-01T06:10:01.005Z,9.74
2023-01-01T06:11:00.939Z,9.75
2023-01-01T06:12:00.914Z,9.81
2023-01-01T06:13:00.909Z,9.82
2023-01-01T06:14:00.972Z,9.80
2023-01-01T06:15:00.908Z,9.81
2023-01-01T06:16:00.923Z,9.79
2023-01-01T06:17:00.920Z,9.75
2023-01-01T06:18:00.912Z,9.82
2023-01-01T06:19:00.876Z,9.78
2023-01-01T06:20:00.921Z,9.81
2023-01-01T06:21:00.925Z,9.86
2023-01-01T06:22:00.932Z,9.85
2023-01-01T06:23:00.922Z,9.88
2023-01-01T06:24:00.965Z,9.94
2023-01-01T06:25:00.948Z,9.88
2023-01-01T06:26:00.852Z,9.89
2023-01-01T06:27:00.810Z,9.85
2023-01-01T06:28:00.837Z,9.89
2023-01-01T06:29:00.874Z,9.93
2023-01-01T06:30:00.840Z,9.95
2023-01-01T06:31:00.861Z,9.98
2023-01-01T06:32:00.866Z,10.00
2023-01-01T06:33:00.772Z,10.00
2023-01-01T06:34:00.750Z,10.01
2023-01-01T06:35:00.803Z,9.99
2023-01-01T06:36:00.761Z,9.97
2023-01-01T06:37:06.451Z,9.98
2023-01-01T06:38:00.838Z,9.97
2023-01-01T06:39:00.765Z,9.96
2023-01-01T06:40:00.813Z,9.94
2023-01-01T06:41:00.734Z,9.94
2023-01-01T06:42:00.880Z,9.94
2023-01-01T06:43:00.720Z,9.92
2023-01-01T06:44:00.741Z,9.87
2023-01-01T06:45:00.769Z,9.83
2023-01-01T06:46:00.741Z,9.83
2023-01-01T06:47:00.751Z,9.82
2023-01-01T06:48:00.697Z,9.84
2023-01-01T06:49:00.689Z,9.79
2023-01-01T06:50:00.712Z,9.74
2023-01-01T06:51:00.718Z,9.73
2023-01-01T06:52:00.677Z,9.72
2023-01-01T06:53:00.704Z,9.75
2023-01-01T06:54:00.665Z,9.77
2023-01-01T06:55:00.657Z,9.76
2023-01-01T06:56:00.645Z,9.77
2023-01-01T06:57:00.641Z,9.75
2023-01-01T06:58:00.674Z,9.75
2023-01-01T06:59:00.671Z,9.71
2023-01-01T07:00:00.619Z,9.71
2023-01-01T07:01:06.320Z,9.71
2023-01-01T07:02:00.709Z,9.69
2023-01-01T07:03:00.800Z,9.67
2023-01-01T07:04:00.624Z,9.66
2023-01-01T07:05:00.634Z,9.66
2023-01-01T07:06:00.728Z,9.67
2023-01-01T07:07:00.629Z,9.68
2023-01-01T07:08:00.631Z,9.63
2023-01-01T07:09:00.599Z,9.63
2023-01-01T07:10:00.575Z,9.61
2023-01-01T07:11:00.651Z,9.57
2023-01-01T07:12:00.580Z,9.53
2023-01-01T07:13:00.564Z,9.52
2023-01-01T07:14:00.597Z,9.53
2023-01-01T07:15:00.591Z,9.52
2023-01-01T07:16:00.633Z,9.52
2023-01-01T07:17:00.592Z,9.51
2023-01-01T07:18:00.593Z,9.48
2023-01-01T07:19:00.551Z,9.46
2023-01-01T07:20:00.568Z,9.47
2023-01-01T07:21:00.584Z,9.47
2023-01-01T07:22:00.621Z,9.48
2023-01-01T07:23:00.601Z,9.47
2023-01-01T07:24:00.731Z,9.47
2023-01-01T07:25:00.606Z,9.48
2023-01-01T07:26:00.580Z,9.49
2023-01-01T07:27:00.576Z,9.50
2023-01-01T07:28:00.573Z,9.50
2023-01-01T07:29:06.801Z,9.47
2023-01-01T07:30:00.636Z,9.46
2023-01-01T07:31:00.621Z,9.43
2023-01-01T07:32:00.556Z,9.33
2023-01-01T07:33:00.690Z,9.35
2023-01-01T07:34:00.576Z,9.39
2023-01-01T07:35:00.582Z,9.39
2023-01-01T07:36:00.640Z,9.41
2023-01-01T07:37:00.546Z,9.40
2023-01-01T07:38:00.558Z,9.42
2023-01-01T07:39:00.561Z,9.44
2023-01-01T07:40:00.608Z,9.47
2023-01-01T07:41:00.565Z,9.45
2023-01-01T07:42:02.827Z,9.44
2023-01-01T07:43:00.552Z,9.41
2023-01-01T07:44:00.589Z,9.41
2023-01-01T07:45:00.598Z,9.42
2023-01-01T07:46:00.634Z,9.40
2023-01-01T07:47:00.568Z,9.33
2023-01-01T07:48:00.624Z,9.29
2023-01-01T07:49:00.675Z,9.34
2023-01-01T07:50:00.574Z,9.38
2023-01-01T07:51:00.739Z,9.39
2023-01-01T07:52:00.581Z,9.42
2023-01-01T07:53:00.561Z,9.45
2023-01-01T07:54:06.152Z,9.45
2023-01-01T07:55:00.575Z,9.39
2023-01-01T07:56:00.551Z,9.39
2023-01-01T07:57:00.600Z,9.41
2023-01-01T07:58:00.567Z,9.41
2023-01-01T07:59:00.545Z,9.41
2023-01-01T08:00:00.538Z,9.41
2023-01-01T08:01:00.648Z,9.42
2023-01-01T08:02:00.706Z,9.41
2023-01-01T08:03:00.724Z,9.39
2023-01-01T08:04:00.600Z,9.40
2023-01-01T08:05:00.631Z,9.40
2023-01-01T08:06:00.576Z,9.42
2023-01-01T08:07:00.563Z,9.38
2023-01-01T08:08:00.580Z,9.34
2023-01-01T08:09:00.650Z,9.33
2023-01-01T08:10:00.562Z,9.28
2023-01-01T08:11:03.902Z,9.19
2023-01-01T08:12:00.585Z,9.08
2023-01-01T08:13:00.636Z,9.03
2023-01-01T08:14:00.642Z,9.06
2023-01-01T08:15:00.630Z,9.08
2023-01-01T08:16:00.718Z,9.12
2023-01-01T08:17:00.600Z,9.11
2023-01-01T08:18:00.635Z,9.16
2023-01-01T08:19:00.580Z,9.21
2023-01-01T08:20:00.603Z,9.22
2023-01-01T08:21:00.605Z,9.27
2023-01-01T08:22:00.579Z,9.31
2023-01-01T08:23:06.656Z,9.35
2023-01-01T08:24:00.686Z,9.37
2023-01-01T08:25:00.600Z,9.39
2023-01-01T08:26:00.605Z,9.43
2023-01-01T08:27:00.582Z,9.41
2023-01-01T08:28:00.557Z,9.42
2023-01-01T08:29:00.603Z,9.44
2023-01-01T08:30:00.642Z,9.47
2023-01-01T08:31:00.635Z,9.47
2023-01-01T08:32:00.596Z,9.51
2023-01-01T08:33:00.748Z,9.42
2023-01-01T08:34:00.581Z,9.40
2023-01-01T08:35:00.580Z,9.42
2023-01-01T08:36:00.532Z,9.45
2023-01-01T08:37:00.526Z,9.47
2023-01-01T08:38:00.542Z,9.51
2023-01-01T08:39:00.575Z,9.52
2023-01-01T08:40:00.535Z,9.55
2023-01-01T08:41:00.629Z,9.56
2023-01-01T08:42:00.515Z,9.56
2023-01-01T08:43:00.523Z,9.57
2023-01-01T08:44:00.551Z,9.57
2023-01-01T08:45:00.510Z,9.50
2023-01-01T08:46:00.586Z,9.46
2023-01-01T08:47:00.604Z,9.39
2023-01-01T08:48:00.605Z,9.41
2023-01-01T08:49:00.570Z,9.47
2023-01-01T08:50:00.511Z,9.51
2023-01-01T08:51:00.509Z,9.55
2023-01-01T08:52:00.518Z,9.48
2023-01-01T08:53:00.487Z,9.48
2023-01-01T08:54:00.476Z,9.45
2023-01-01T08:55:00.566Z,9.45
2023-01-01T08:56:00.530Z,9.39
2023-01-01T08:57:00.498Z,9.43
2023-01-01T08:58:00.459Z,9.48
2023-01-01T08:59:04.057Z,9.53
2023-01-01T09:00:00.472Z,9.45
2023-01-01T09:01:00.481Z,9.49
2023-01-01T09:02:00.615Z,9.46
2023-01-01T09:03:00.605Z,9.48
2023-01-01T09:04:00.438Z,9.49
2023-01-01T09:05:00.430Z,9.49
2023-01-01T09:06:00.452Z,9.48
2023-01-01T09:07:00.478Z,9.53
2023-01-01T09:08:00.429Z,9.57
2023-01-01T09:09:00.516Z,9.59
2023-01-01T09:10:00.519Z,9.58
2023-01-01T09:11:00.408Z,9.51
2023-01-01T09:12:00.412Z,9.48
2023-01-01T09:13:00.407Z,9.42
2023-01-01T09:14:00.509Z,9.45
2023-01-01T09:15:00.392Z,9.49
2023-01-01T09:16:00.534Z,9.53
2023-01-01T09:17:00.403Z,9.58
2023-01-01T09:18:00.432Z,9.59
2023-01-01T09:19:00.444Z,9.53
2023-01-01T09:20:00.449Z,9.51
2023-01-01T09:21:00.444Z,9.55
2023-01-01T09:22:00.405Z,9.55
2023-01-01T09:23:05.642Z,9.53
2023-01-01T09:24:00.431Z,9.47
2023-01-01T09:25:00.406Z,9.41
2023-01-01T09:26:00.395Z,9.42
2023-01-01T09:27:00.573Z,9.40
2023-01-01T09:28:00.414Z,9.24
2023-01-01T09:29:00.428Z,9.18
2023-01-01T09:30:00.442Z,9.26
2023-01-01T09:31:00.436Z,9.30
2023-01-01T09:32:00.651Z,9.36
2023-01-01T09:33:00.445Z,9.42
2023-01-01T09:34:00.552Z,9.34
2023-01-01T09:35:00.477Z,9.33
2023-01-01T09:36:00.471Z,9.38
2023-01-01T09:37:00.523Z,9.37
2023-01-01T09:38:00.556Z,9.37
2023-01-01T09:39:00.547Z,9.32
2023-01-01T09:40:00.498Z,9.37
2023-01-01T09:41:00.636Z,9.29
2023-01-01T09:42:00.517Z,9.28
2023-01-01T09:43:00.539Z,9.34
2023-01-01T09:44:00.550Z,9.30
2023-01-01T09:45:00.593Z,9.28
2023-01-01T09:46:00.623Z,9.23
2023-01-01T09:47:00.620Z,9.30
2023-01-01T09:48:00.571Z,9.33
2023-01-01T09:49:00.554Z,9.37
2023-01-01T09:50:00.637Z,9.42
2023-01-01T09:51:00.595Z,9.50
2023-01-01T09:52:00.591Z,9.55
2023-01-01T09:53:00.672Z,9.58
2023-01-01T09:54:00.571Z,9.60
2023-01-01T09:55:00.599Z,9.57
2023-01-01T09:56:00.580Z,9.48
2023-01-01T09:57:00.603Z,9.47
2023-01-01T09:58:00.601Z,9.53
2023-01-01T09:59:00.783Z,9.58
2023-01-01T10:00:00.598Z,9.54
2023-01-01T10:01:00.745Z,9.55
2023-01-01T10:02:00.758Z,9.59
2023-01-01T10:03:00.672Z,9.63
2023-01-01T10:04:00.658Z,9.68
2023-01-01T10:05:00.630Z,9.75
2023-01-01T10:06:00.697Z,9.80
2023-01-01T10:07:00.612Z,9.84
2023-01-01T10:08:00.650Z,9.91
2023-01-01T10:09:00.657Z,10.01
2023-01-01T10:10:00.604Z,10.03
2023-01-01T10:11:00.615Z,10.06
2023-01-01T10:12:00.681Z,10.10
2023-01-01T10:13:00.625Z,10.18
2023-01-01T10:14:00.660Z,10.24
2023-01-01T10:15:01.196Z,10.30
2023-01-01T10:16:00.616Z,10.41
2023-01-01T10:17:00.651Z,10.40
2023-01-01T10:18:00.549Z,10.42
2023-01-01T10:19:00.547Z,10.40
2023-01-01T10:20:00.511Z,10.45
2023-01-01T10:21:00.556Z,10.55
2023-01-01T10:22:00.740Z,10.65
2023-01-01T10:23:00.464Z,10.71
2023-01-01T10:24:00.525Z,10.74
2023-01-01T10:25:00.409Z,10.81
2023-01-01T10:26:00.582Z,10.88
2023-01-01T10:27:00.397Z,10.90
2023-01-01T10:28:00.422Z,10.90
2023-01-01T10:29:00.377Z,10.92
2023-01-01T10:30:04.202Z,10.99
2023-01-01T10:31:00.565Z,10.99
2023-01-01T10:32:00.586Z,11.00
2023-01-01T10:33:00.565Z,11.09
2023-01-01T10:34:00.545Z,11.10
2023-01-01T10:35:00.468Z,11.11
2023-01-01T10:36:00.484Z,11.18
2023-01-01T10:37:00.494Z,11.16
2023-01-01T10:38:00.453Z,11.21
2023-01-01T10:39:00.436Z,11.25
2023-01-01T10:40:00.469Z,11.26
2023-01-01T10:41:00.533Z,11.31
2023-01-01T10:42:00.400Z,11.36
2023-01-01T10:43:00.408Z,11.33
2023-01-01T10:44:00.388Z,11.38
2023-01-01T10:45:00.419Z,11.39
2023-01-01T10:46:00.359Z,11.45
2023-01-01T10:47:00.224Z,11.50
2023-01-01T10:48:00.252Z,11.51
2023-01-01T10:49:00.416Z,11.50
2023-01-01T10:50:00.181Z,11.53
2023-01-01T10:51:00.370Z,11.55
2023-01-01T10:52:00.105Z,11.62
2023-01-01T10:53:00.056Z,11.63
2023-01-01T10:54:00.038Z,11.69
2023-01-01T10:55:00.055Z,11.75
2023-01-01T10:55:59.996Z,11.85
2023-01-01T10:56:59.960Z,11.84
2023-01-01T10:57:59.984Z,11.90
2023-01-01T10:58:59.904Z,11.90
2023-01-01T10:59:59.885Z,11.93
2023-01-01T11:00:59.953Z,11.92
2023-01-01T11:01:59.994Z,12.00
2023-01-01T11:02:59.900Z,12.05
2023-01-01T11:03:59.791Z,12.07
2023-01-01T11:04:59.771Z,12.06
2023-01-01T11:05:59.759Z,12.10
2023-01-01T11:06:59.714Z,12.11
2023-01-01T11:07:59.871Z,12.12
2023-01-01T11:08:59.796Z,12.20
2023-01-01T11:10:03.459Z,12.22
2023-01-01T11:10:59.741Z,12.28
2023-01-01T11:12:05.383Z,12.28
2023-01-01T11:13:07.167Z,12.30
2023-01-01T11:13:59.633Z,12.32
2023-01-01T11:14:59.674Z,12.29
2023-01-01T11:15:59.540Z,12.26
2023-01-01T11:16:59.581Z,12.21
2023-01-01T11:17:59.484Z,12.26
2023-01-01T11:18:59.449Z,12.32
2023-01-01T11:20:02.144Z,12.38
2023-01-01T11:20:59.569Z,12.39
2023-01-01T11:21:59.515Z,12.41
2023-01-01T11:22:59.378Z,12.44
2023-01-01T11:23:59.489Z,12.54
2023-01-01T11:24:59.479Z,12.54
2023-01-01T11:25:59.395Z,12.55
2023-01-01T11:26:59.226Z,12.57
2023-01-01T11:27:59.271Z,12.60
2023-01-01T11:28:59.169Z,12.62
2023-01-01T11:29:59.182Z,12.62
2023-01-01T11:30:59.220Z,12.66
2023-01-01T11:31:59.202Z,12.73
2023-01-01T11:32:59.159Z,12.72
2023-01-01T11:33:59.164Z,12.70
2023-01-01T11:34:58.916Z,12.72
2023-01-01T11:35:58.959Z,12.75
2023-01-01T11:36:58.909Z,12.73
2023-01-01T11:37:58.833Z,12.77
2023-01-01T11:38:58.769Z,12.73
2023-01-01T11:39:58.729Z,12.75
2023-01-01T11:40:58.790Z,12.79
2023-01-01T11:41:58.829Z,12.78
2023-01-01T11:42:58.895Z,12.87
2023-01-01T11:43:58.595Z,12.83
2023-01-01T11:44:58.586Z,12.91
2023-01-01T11:45:58.581Z,12.99
2023-01-01T11:46:58.470Z,13.08
2023-01-01T11:47:58.409Z,13.08
2023-01-01T11:48:58.357Z,13.01
2023-01-01T11:49:58.360Z,12.94
2023-01-01T11:50:58.248Z,12.95
2023-01-01T11:51:58.279Z,12.98
2023-01-01T11:52:58.267Z,13.02
2023-01-01T11:53:58.158Z,13.01
2023-01-01T11:54:58.125Z,13.10
2023-01-01T11:55:58.088Z,13.18
2023-01-01T11:56:58.119Z,13.22
2023-01-01T11:57:57.981Z,13.24
2023-01-01T11:58:58.016Z,13.21
2023-01-01T11:59:57.961Z,13.15
2023-01-01T12:00:57.830Z,13.16
2023-01-01T12:01:57.913Z,13.22
2023-01-01T12:02:57.818Z,13.28
2023-01-01T12:03:57.709Z,13.33
2023-01-01T12:04:57.644Z,13.31
2023-01-01T12:05:57.575Z,13.29
2023-01-01T12:06:57.577Z,13.26
2023-01-01T12:07:57.461Z,13.22
2023-01-01T12:08:57.418Z,13.27
2023-01-01T12:09:57.529Z,13.33
2023-01-01T12:10:57.504Z,13.34
2023-01-01T12:11:57.362Z,13.34
2023-01-01T12:12:57.224Z,13.37
2023-01-01T12:13:57.164Z,13.34
2023-01-01T12:14:57.168Z,13.39
2023-01-01T12:15:57.066Z,13.46
2023-01-01T12:16:56.991Z,13.54
2023-01-01T12:17:56.978Z,13.57
2023-01-01T12:18:56.926Z,13.55
2023-01-01T12:19:56.866Z,13.56
2023-01-01T12:20:56.782Z,13.55
2023-01-01T12:21:56.755Z,13.53
2023-01-01T12:22:56.693Z,13.60
2023-01-01T12:23:56.630Z,13.59
2023-01-01T12:24:56.615Z,13.59
2023-01-01T12:25:56.518Z,13.65
2023-01-01T12:26:56.457Z,13.70
2023-01-01T12:27:56.411Z,13.70
2023-01-01T12:28:56.343Z,13.69
2023-01-01T12:29:56.352Z,13.69
2023-01-01T12:30:56.347Z,13.71
2023-01-01T12:31:56.267Z,13.80
2023-01-01T12:32:56.203Z,13.85
2023-01-01T12:33:56.154Z,13.87
2023-01-01T12:34:56.012Z,13.91
2023-01-01T12:35:55.947Z,13.96
2023-01-01T12:36:55.882Z,14.00
2023-01-01T12:37:55.877Z,14.04
2023-01-01T12:38:55.910Z,14.07
2023-01-01T12:39:55.727Z,14.08
2023-01-01T12:40:55.662Z,14.10
2023-01-01T12:41:55.923Z,14.11
2023-01-01T12:42:55.559Z,14.12
2023-01-01T12:43:55.539Z,14.00
2023-01-01T12:44:55.462Z,13.91
2023-01-01T12:45:55.436Z,13.88
2023-01-01T12:46:55.412Z,13.94
2023-01-01T12:47:55.372Z,13.94
2023-01-01T12:48:55.308Z,13.99
2023-01-01T12:49:55.173Z,14.00
2023-01-01T12:50:59.874Z,14.00
2023-01-01T12:51:55.032Z,14.00
2023-01-01T12:52:54.997Z,14.06
2023-01-01T12:53:54.969Z,14.10
2023-01-01T12:54:54.850Z,14.11
2023-01-01T12:55:54.774Z,14.15
2023-01-01T12:56:54.819Z,14.17
2023-01-01T12:57:54.640Z,14.15
2023-01-01T12:58:54.607Z,14.13
2023-01-01T12:59:54.635Z,14.16
2023-01-01T13:00:54.493Z,14.21
2023-01-01T13:01:54.603Z,14.17
2023-01-01T13:02:54.464Z,14.07
2023-01-01T13:03:54.297Z,14.03
2023-01-01T13:04:54.278Z,14.06
2023-01-01T13:05:54.248Z,14.09
2023-01-01T13:06:54.108Z,14.14
2023-01-01T13:07:54.036Z,14.16
2023-01-01T13:08:54.036Z,14.17
2023-01-01T13:09:54.072Z,14.15
2023-01-01T13:10:53.897Z,14.14
2023-01-01T13:11:53.779Z,14.17
2023-01-01T13:12:53.742Z,14.22
2023-01-01T13:13:53.682Z,14.25
2023-01-01T13:14:53.580Z,14.29
2023-01-01T13:15:53.636Z,14.30
2023-01-01T13:16:53.430Z,14.32
2023-01-01T13:17:53.434Z,14.26
2023-01-01T13:18:58.945Z,14.29
2023-01-01T13:19:53.430Z,14.28
2023-01-01T13:20:53.360Z,14.28
2023-01-01T13:21:53.160Z,14.26
2023-01-01T13:22:53.199Z,14.25
2023-01-01T13:23:53.040Z,14.27
2023-01-01T13:24:52.954Z,14.31
2023-01-01T13:25:52.860Z,14.36
2023-01-01T13:26:52.825Z,14.37
2023-01-01T13:27:52.791Z,14.37
2023-01-01T13:28:52.698Z,14.33
2023-01-01T13:29:52.652Z,14.34
2023-01-01T13:30:52.545Z,14.34
2023-01-01T13:31:52.512Z,14.36
2023-01-01T13:32:52.484Z,14.31
2023-01-01T13:33:52.586Z,14.34
2023-01-01T13:34:52.425Z,14.40
2023-01-01T13:35:53.167Z,14.42
2023-01-01T13:36:52.255Z,14.40
2023-01-01T13:37:52.250Z,14.40
2023-01-01T13:38:52.086Z,14.38
2023-01-01T13:39:51.969Z,14.42
2023-01-01T13:40:51.911Z,14.43
2023-01-01T13:41:51.873Z,14.37
2023-01-01T13:42:51.968Z,14.32
2023-01-01T13:43:51.737Z,14.32
2023-01-01T13:44:51.701Z,14.33
2023-01-01T13:46:51.861Z,14.38
2023-01-01T13:47:51.565Z,14.40
2023-01-01T13:48:56.102Z,14.41
2023-01-01T13:49:51.425Z,14.44
2023-01-01T13:50:51.321Z,14.43
2023-01-01T13:52:08.205Z,14.38
2023-01-01T13:52:51.264Z,14.35
2023-01-01T13:53:51.188Z,14.34
2023-01-01T13:54:51.105Z,14.36
2023-01-01T13:55:51.023Z,14.34
2023-01-01T13:56:51.048Z,14.31
2023-01-01T13:57:50.940Z,14.32
2023-01-01T13:58:50.914Z,14.28
2023-01-01T13:59:50.861Z,14.25
2023-01-01T14:00:50.829Z,14.16
2023-01-01T14:01:50.991Z,14.16
2023-01-01T14:02:50.861Z,14.13
2023-01-01T14:03:50.712Z,14.13
2023-01-01T14:04:50.642Z,14.13
2023-01-01T14:05:50.534Z,14.11
2023-01-01T14:06:50.510Z,14.10
2023-01-01T14:07:51.967Z,14.08
2023-01-01T14:08:50.422Z,14.06
2023-01-01T14:09:50.340Z,13.98
2023-01-01T14:10:50.337Z,13.86
2023-01-01T14:11:50.271Z,13.84
2023-01-01T14:12:50.211Z,13.88
2023-01-01T14:13:50.088Z,13.94
2023-01-01T14:14:50.072Z,13.98
2023-01-01T14:15:50.008Z,13.97
2023-01-01T14:16:50.006Z,13.99
2023-01-01T14:17:49.919Z,13.99
2023-01-01T14:18:49.883Z,13.98
2023-01-01T14:19:49.847Z,13.98
2023-01-01T14:20:49.857Z,13.93
2023-01-01T14:21:49.706Z,13.83
2023-01-01T14:22:49.632Z,13.77
2023-01-01T14:23:49.607Z,13.78
2023-01-01T14:24:49.520Z,13.79
2023-01-01T14:25:49.538Z,13.82
2023-01-01T14:26:49.501Z,13.84
2023-01-01T14:27:49.368Z,13.82
2023-01-01T14:28:49.343Z,13.79
2023-01-01T14:29:49.375Z,13.69
2023-01-01T14:30:49.259Z,13.66
2023-01-01T14:31:49.173Z,13.58
2023-01-01T14:32:49.110Z,13.54
2023-01-01T14:33:49.137Z,13.52
2023-01-01T14:34:48.991Z,13.55
2023-01-01T14:35:48.943Z,13.55
2023-01-01T14:36:48.942Z,13.55
2023-01-01T14:37:48.828Z,13.57
2023-01-01T14:38:48.823Z,13.58
2023-01-01T14:39:48.747Z,13.50
2023-01-01T14:40:48.684Z,13.36
2023-01-01T14:41:48.669Z,13.30
2023-01-01T14:42:48.637Z,13.29
2023-01-01T14:43:48.569Z,13.33
2023-01-01T14:44:48.508Z,13.38
2023-01-01T14:45:48.556Z,13.40
2023-01-01T14:46:48.425Z,13.40
2023-01-01T14:47:48.363Z,13.37
2023-01-01T14:48:48.339Z,13.37
2023-01-01T14:49:48.374Z,13.36
2023-01-01T14:50:48.254Z,13.35
2023-01-01T14:51:48.201Z,13.35
2023-01-01T14:52:48.160Z,13.28
2023-01-01T14:53:48.120Z,13.23
2023-01-01T14:54:48.127Z,13.15
2023-01-01T14:55:48.138Z,13.11
2023-01-01T14:56:48.026Z,13.10
2023-01-01T14:57:47.983Z,13.06
2023-01-01T14:58:47.904Z,12.83
2023-01-01T14:59:47.861Z,12.66
2023-01-01T15:00:47.880Z,12.62
2023-01-01T15:01:47.989Z,12.63
2023-01-01T15:02:47.837Z,12.67
2023-01-01T15:03:47.726Z,12.69
2023-01-01T15:04:47.679Z,12.68
2023-01-01T15:05:47.671Z,12.63
2023-01-01T15:06:47.598Z,12.58
2023-01-01T15:07:47.542Z,12.55
2023-01-01T15:08:47.628Z,12.45
2023-01-01T15:09:47.473Z,12.47
2023-01-01T15:10:47.492Z,12.47
2023-01-01T15:11:47.400Z,12.45
2023-01-01T15:12:47.349Z,12.47
2023-01-01T15:13:47.344Z,12.50
2023-01-01T15:14:47.257Z,12.48
2023-01-01T15:15:47.234Z,12.48
2023-01-01T15:16:47.262Z,12.48
2023-01-01T15:17:47.151Z,12.46
2023-01-01T15:18:47.137Z,12.40
2023-01-01T15:19:47.112Z,12.37
2023-01-01T15:20:47.108Z,12.32
2023-01-01T15:21:47.045Z,12.19
2023-01-01T15:22:47.023Z,12.09
2023-01-01T15:23:47.004Z,12.05
2023-01-01T15:24:46.975Z,12.02
2023-01-01T15:25:46.898Z,11.97
2023-01-01T15:26:46.934Z,11.98
2023-01-01T15:27:46.820Z,11.96
2023-01-01T15:28:46.853Z,11.85
2023-01-01T15:29:46.856Z,11.80
2023-01-01T15:30:46.817Z,11.80
2023-01-01T15:31:46.825Z,11.77
2023-01-01T15:32:46.736Z,11.72
2023-01-01T15:33:46.722Z,11.72
2023-01-01T15:34:46.670Z,11.71
2023-01-01T15:35:46.676Z,11.69
2023-01-01T15:36:46.663Z,11.68
2023-01-01T15:37:46.606Z,11.65
2023-01-01T15:38:46.550Z,11.62
2023-01-01T15:39:46.536Z,11.62
2023-01-01T15:40:52.709Z,11.59
2023-01-01T15:41:46.502Z,11.60
2023-01-01T15:42:46.506Z,11.60
2023-01-01T15:43:46.456Z,11.55
2023-01-01T15:44:46.512Z,11.51
2023-01-01T15:45:46.603Z,11.49
2023-01-01T15:55:46.319Z,11.31
2023-01-01T15:56:46.275Z,11.31
2023-01-01T16:16:46.122Z,10.95
2023-01-01T16:18:45.952Z,10.94
2023-01-01T16:19:45.810Z,10.92
2023-01-01T16:20:45.848Z,10.84
2023-01-01T16:21:45.859Z,10.82
2023-01-01T16:23:45.835Z,10.83
2023-01-01T16:24:45.744Z,10.83
2023-01-01T16:25:45.750Z,10.83
2023-01-01T16:26:45.759Z,10.82
2023-01-01T16:27:45.700Z,10.79
2023-01-01T16:28:45.695Z,10.79
2023-01-01T16:29:52.712Z,10.79
2023-01-01T16:30:45.712Z,10.78
2023-01-01T16:31:45.685Z,10.78
2023-01-01T16:32:45.667Z,10.76
2023-01-01T16:33:45.665Z,10.76
2023-01-01T16:34:45.698Z,10.74
2023-01-01T16:35:45.670Z,10.67
2023-01-01T16:36:45.736Z,10.64
2023-01-01T16:37:45.645Z,10.62
2023-01-01T16:38:45.603Z,10.61
2023-01-01T16:39:45.651Z,10.62
2023-01-01T16:40:45.563Z,10.62
2023-01-01T16:41:45.630Z,10.62
2023-01-01T16:42:45.547Z,10.61
2023-01-01T16:43:45.587Z,10.61
2023-01-01T16:44:45.681Z,10.60
2023-01-01T16:45:45.653Z,10.58
2023-01-01T16:46:45.687Z,10.56
2023-01-01T16:47:45.531Z,10.56
2023-01-01T16:48:45.692Z,10.54
2023-01-01T16:49:45.549Z,10.47
2023-01-01T16:50:45.493Z,10.44
2023-01-01T16:51:45.747Z,10.40
2023-01-01T16:52:45.517Z,10.38
2023-01-01T16:53:45.608Z,10.26
2023-01-01T16:54:45.649Z,10.16